createdAt,value
2018-12-29T00:01:46.153Z,102496.55
2018-12-29T00:04:14.601Z,102489.05
2018-12-29T00:06:43.027Z,102498.40
2018-12-29T00:09:11.475Z,102496.69
2018-12-29T00:11:39.900Z,102495.33
2018-12-29T00:14:08.347Z,102499.41
2018-12-29T00:16:36.771Z,102503.47
2018-12-29T00:19:05.288Z,102497.70
2018-12-29T00:21:33.806Z,102502.23
2018-12-29T00:24:02.265Z,102493.03
2018-12-29T00:26:30.689Z,102498.16
2018-12-29T00:28:59.142Z,102491.03
2018-12-29T00:31:27.562Z,102484.75
2018-12-29T00:33:56.020Z,102490.02
2018-12-29T00:36:24.441Z,102482.03
2018-12-29T00:38:52.893Z,102482.03
2018-12-29T00:41:21.315Z,102487.45
2018-12-29T00:43:49.772Z,102477.73
2018-12-29T00:46:18.203Z,102480.83
2018-12-29T00:48:46.660Z,102480.44
2018-12-29T00:51:15.079Z,102475.25
2018-12-29T00:53:43.531Z,102483.66
2018-12-29T00:56:11.956Z,102472.95
2018-12-29T00:58:40.405Z,102468.50
2018-12-29T01:01:08.898Z,102474.92
2018-12-29T01:03:37.354Z,102473.06
2018-12-29T01:06:05.782Z,102477.41
2018-12-29T01:08:34.239Z,102477.55
2018-12-29T01:11:02.667Z,102483.98
2018-12-29T01:13:31.112Z,102477.28
2018-12-29T01:15:59.540Z,102474.98
2018-12-29T01:18:27.965Z,102480.87
2018-12-29T01:20:56.426Z,102475.83
2018-12-29T01:23:24.849Z,102484.36
2018-12-29T01:25:53.307Z,102484.47
2018-12-29T01:28:21.731Z,102493.46
2018-12-29T01:30:50.173Z,102489.55
2018-12-29T01:33:18.605Z,102494.61
2018-12-29T01:35:47.055Z,102493.11
2018-12-29T01:38:15.507Z,102490.16
2018-12-29T01:40:43.943Z,102484.37
2018-12-29T01:43:12.372Z,102468.28
2018-12-29T01:45:40.816Z,102481.31
2018-12-29T01:48:09.243Z,102483.64
2018-12-29T01:50:37.693Z,102474.70
2018-12-29T01:53:06.117Z,102486.64
2018-12-29T01:55:34.567Z,102497.25
2018-12-29T01:58:02.989Z,102502.33
2018-12-29T02:00:31.442Z,102509.72
2018-12-29T02:02:59.869Z,102515.14
2018-12-29T02:05:28.319Z,102511.58
2018-12-29T02:07:56.740Z,102517.00
2018-12-29T02:10:25.257Z,102498.03
2018-12-29T02:12:53.683Z,102517.11
2018-12-29T02:15:24.789Z,102518.85
2018-12-29T02:17:52.353Z,102519.35
2018-12-29T02:20:20.827Z,102529.45
2018-12-29T02:22:49.239Z,102521.97
2018-12-29T02:25:17.686Z,102522.94
2018-12-29T02:27:46.106Z,102521.08
2018-12-29T02:30:14.561Z,102523.44
2018-12-29T02:32:42.998Z,102521.73
2018-12-29T02:35:11.446Z,102511.38
2018-12-29T02:37:39.875Z,102497.34
2018-12-29T02:40:08.396Z,102498.18
2018-12-29T02:42:36.820Z,102495.47
2018-12-29T02:45:05.644Z,102491.05
2018-12-29T02:47:34.068Z,102487.48
2018-12-29T02:50:02.594Z,102486.98
2018-12-29T02:52:31.026Z,102489.45
2018-12-29T02:54:59.473Z,102486.73
2018-12-29T02:57:27.903Z,102487.23
2018-12-29T02:59:56.326Z,102488.24
2018-12-29T03:02:24.783Z,102481.72
2018-12-29T03:04:53.205Z,102481.72
2018-12-29T03:07:21.662Z,102467.91
2018-12-29T03:09:50.082Z,102461.13
2018-12-29T03:12:18.534Z,102462.84
2018-12-29T03:14:46.966Z,102444.64
2018-12-29T03:17:15.413Z,102444.64
2018-12-29T03:19:43.835Z,102454.22
2018-12-29T03:22:12.291Z,102454.72
2018-12-29T03:24:40.714Z,102454.72
2018-12-29T03:27:09.166Z,102449.56
2018-12-29T03:29:37.585Z,102454.88
2018-12-29T03:32:06.035Z,102447.59
2018-12-29T03:34:34.457Z,102446.09
2018-12-29T03:37:02.911Z,102442.17
2018-12-29T03:39:31.336Z,102439.96
2018-12-29T03:41:59.788Z,102439.11
2018-12-29T03:44:28.228Z,102439.61
2018-12-29T03:46:56.680Z,102438.46
2018-12-29T03:49:25.120Z,102428.64
2018-12-29T03:51:53.584Z,102434.78
2018-12-29T03:54:22.007Z,102434.78
2018-12-29T03:56:50.466Z,102427.88
2018-12-29T03:59:18.885Z,102425.81
2018-12-29T04:01:47.336Z,102425.81
2018-12-29T04:04:15.759Z,102429.03
2018-12-29T04:06:44.221Z,102429.03
2018-12-29T04:09:35.470Z,102413.61
2018-12-29T04:12:07.363Z,102418.19
2018-12-29T04:14:36.933Z,102427.17
2018-12-29T04:17:05.403Z,102427.17
2018-12-29T04:19:33.813Z,102427.52
2018-12-29T04:22:02.335Z,102435.66
2018-12-29T04:24:30.761Z,102435.66
2018-12-29T04:26:59.214Z,102424.11
2018-12-29T04:29:27.717Z,102428.12
2018-12-29T04:31:56.237Z,102422.84
2018-12-29T04:34:24.664Z,102430.73
2018-12-29T04:36:53.116Z,102430.73
2018-12-29T04:39:21.548Z,102431.09
2018-12-29T04:41:49.996Z,102421.84
2018-12-29T04:44:18.424Z,102433.69
2018-12-29T04:46:46.877Z,102412.27
2018-12-29T04:49:15.307Z,102411.91
2018-12-29T04:51:43.759Z,102406.58
2018-12-29T04:54:12.261Z,102406.58
2018-12-29T04:56:40.722Z,102405.72
2018-12-29T04:59:09.141Z,102414.06
2018-12-29T05:01:37.636Z,102412.77
2018-12-29T05:04:06.088Z,102429.63
2018-12-29T05:06:34.519Z,102424.96
2018-12-29T05:09:02.973Z,102425.72
2018-12-29T05:11:31.399Z,102431.47
2018-12-29T05:13:59.850Z,102431.47
2018-12-29T05:16:28.279Z,102424.22
2018-12-29T05:18:56.728Z,102432.83
2018-12-29T05:21:25.155Z,102432.69
2018-12-29T05:23:53.606Z,102440.05
2018-12-29T05:26:22.032Z,102422.84
2018-12-29T05:28:50.483Z,102422.84
2018-12-29T05:31:18.909Z,102415.05
2018-12-29T05:33:47.368Z,102421.08
2018-12-29T05:36:15.787Z,102421.08
2018-12-29T05:38:44.237Z,102419.22
2018-12-29T05:41:12.663Z,102415.75
2018-12-29T05:43:41.121Z,102426.33
2018-12-29T05:46:09.551Z,102423.53
2018-12-29T05:48:38.003Z,102423.53
2018-12-29T05:51:06.428Z,102421.26
2018-12-29T05:53:34.876Z,102424.36
2018-12-29T05:56:03.324Z,102421.41
2018-12-29T05:58:31.753Z,102425.56
2018-12-29T06:01:00.185Z,102430.34
2018-12-29T06:03:28.703Z,102430.34
2018-12-29T06:05:57.138Z,102432.58
2018-12-29T06:08:25.584Z,102430.58
2018-12-29T06:10:54.007Z,102432.28
2018-12-29T06:13:22.452Z,102436.73
2018-12-29T06:15:50.878Z,102441.40
2018-12-29T06:18:19.333Z,102444.11
2018-12-29T06:20:47.751Z,102439.19
2018-12-29T06:23:16.197Z,102436.59
2018-12-29T06:25:44.619Z,102431.64
2018-12-29T06:28:13.068Z,102437.66
2018-12-29T06:30:41.501Z,102442.08
2018-12-29T06:33:09.943Z,102437.86
2018-12-29T06:35:38.361Z,102439.36
2018-12-29T06:38:06.809Z,102436.16
2018-12-29T06:40:35.240Z,102434.30
2018-12-29T06:43:03.703Z,102439.22
2018-12-29T06:45:32.128Z,102444.02
2018-12-29T06:48:00.559Z,102442.31
2018-12-29T06:50:29.007Z,102441.31
2018-12-29T06:52:57.433Z,102437.00
2018-12-29T06:55:25.880Z,102447.94
2018-12-29T06:57:54.302Z,102438.36
2018-12-29T07:00:22.750Z,102445.15
2018-12-29T07:02:51.178Z,102437.48
2018-12-29T07:05:19.632Z,102436.71
2018-12-29T07:07:48.061Z,102443.37
2018-12-29T07:10:16.503Z,102438.66
2018-12-29T07:12:44.932Z,102446.44
2018-12-29T07:15:13.386Z,102448.80
2018-12-29T07:17:41.806Z,102454.58
2018-12-29T07:20:10.256Z,102454.58
2018-12-29T07:22:38.689Z,102448.92
2018-12-29T07:25:07.213Z,102452.87
2018-12-29T07:27:35.637Z,102453.87
2018-12-29T07:30:04.827Z,102444.58
2018-12-29T07:32:33.271Z,102435.94
2018-12-29T07:35:01.727Z,102424.13
2018-12-29T07:37:30.149Z,102435.17
2018-12-29T07:39:58.597Z,102435.91
2018-12-29T07:42:27.016Z,102432.58
2018-12-29T07:44:55.467Z,102439.83
2018-12-29T07:47:23.902Z,102430.72
2018-12-29T07:49:52.357Z,102437.85
2018-12-29T07:52:20.784Z,102440.56
2018-12-29T07:54:49.205Z,102438.00
2018-12-29T07:57:17.670Z,102441.42
2018-12-29T07:59:46.082Z,102440.65
2018-12-29T08:02:14.536Z,102428.17
2018-12-29T08:04:42.960Z,102437.75
2018-12-29T08:07:11.413Z,102431.91
2018-12-29T08:09:39.836Z,102432.98
2018-12-29T08:12:08.298Z,102440.63
2018-12-29T08:14:36.793Z,102435.94
2018-12-29T08:17:05.240Z,102430.86
2018-12-29T08:19:33.666Z,102429.08
2018-12-29T08:22:02.112Z,102430.08
2018-12-29T08:24:30.541Z,102419.23
2018-12-29T08:26:58.987Z,102431.80
2018-12-29T08:29:27.417Z,102427.25
2018-12-29T08:31:55.861Z,102426.95
2018-12-29T08:34:24.295Z,102417.75
2018-12-29T08:36:52.737Z,102411.20
2018-12-29T08:39:21.162Z,102406.84
2018-12-29T08:41:49.616Z,102409.91
2018-12-29T08:44:18.038Z,102405.33
2018-12-29T08:46:46.493Z,102407.62
2018-12-29T08:49:14.906Z,102401.14
2018-12-29T08:51:43.365Z,102401.61
2018-12-29T08:54:11.789Z,102404.20
2018-12-29T08:56:40.252Z,102405.64
2018-12-29T08:59:08.680Z,102403.34
2018-12-29T09:01:37.103Z,102411.72
2018-12-29T09:04:05.571Z,102399.73
2018-12-29T09:06:33.987Z,102407.64
2018-12-29T09:09:02.437Z,102399.73
2018-12-29T09:11:30.859Z,102390.29
2018-12-29T09:13:59.387Z,102388.66
2018-12-29T09:16:27.803Z,102391.72
2018-12-29T09:18:56.254Z,102388.66
2018-12-29T09:21:24.680Z,102383.73
2018-12-29T09:23:53.128Z,102392.73
2018-12-29T09:26:21.551Z,102383.00
2018-12-29T09:28:50.000Z,102391.30
2018-12-29T09:31:18.420Z,102389.56
2018-12-29T09:33:46.878Z,102385.99
2018-12-29T09:36:15.375Z,102388.58
2018-12-29T09:38:43.890Z,102386.22
2018-12-29T09:41:12.329Z,102390.86
2018-12-29T09:43:40.776Z,102391.14
2018-12-29T09:46:09.198Z,102392.06
2018-12-29T09:48:37.647Z,102394.16
2018-12-29T09:51:06.076Z,102382.78
2018-12-29T09:53:34.528Z,102384.49
2018-12-29T09:56:02.949Z,102376.69
2018-12-29T09:58:31.397Z,102379.56
2018-12-29T10:00:59.814Z,102386.08
2018-12-29T10:03:28.232Z,102369.62
2018-12-29T10:05:56.689Z,102368.48
2018-12-29T10:08:25.112Z,102359.48
2018-12-29T10:10:53.561Z,102354.11
2018-12-29T10:13:21.989Z,102343.53
2018-12-29T10:15:50.443Z,102342.23
2018-12-29T10:18:18.875Z,102331.64
2018-12-29T10:20:47.329Z,102330.58
2018-12-29T10:23:15.758Z,102335.44
2018-12-29T10:25:44.206Z,102322.02
2018-12-29T10:28:12.835Z,102320.78
2018-12-29T10:30:41.363Z,102309.79
2018-12-29T10:33:09.794Z,102307.58
2018-12-29T10:35:38.243Z,102304.35
2018-12-29T10:38:06.683Z,102308.08
2018-12-29T10:40:35.135Z,102304.86
2018-12-29T10:43:03.559Z,102303.84
2018-12-29T10:45:32.010Z,102314.21
2018-12-29T10:48:00.437Z,102301.98
2018-12-29T10:50:29.153Z,102296.05
2018-12-29T10:52:57.890Z,102293.99
2018-12-29T10:55:26.410Z,102295.19
2018-12-29T10:57:55.002Z,102296.77
2018-12-29T11:00:23.623Z,102280.30
2018-12-29T11:02:52.190Z,102279.67
2018-12-29T11:05:20.903Z,102279.39
2018-12-29T11:07:49.434Z,102278.38
2018-12-29T11:10:18.101Z,102267.00
2018-12-29T11:12:46.695Z,102269.50
2018-12-29T11:15:16.557Z,102264.73
2018-12-29T11:17:45.353Z,102252.62
2018-12-29T11:20:13.848Z,102258.28
2018-12-29T11:22:42.368Z,102254.08
2018-12-29T11:25:10.858Z,102245.09
2018-12-29T11:27:39.543Z,102240.60
2018-12-29T11:30:08.343Z,102238.28
2018-12-29T11:32:38.308Z,102232.05
2018-12-29T11:35:06.959Z,102229.67
2018-12-29T11:37:35.406Z,102231.41
2018-12-29T11:40:04.630Z,102227.05
2018-12-29T11:42:33.082Z,102212.14
2018-12-29T11:45:01.507Z,102206.37
2018-12-29T11:47:29.954Z,102204.38
2018-12-29T11:49:58.372Z,102195.87
2018-12-29T11:52:26.820Z,102196.86
2018-12-29T11:54:55.240Z,102192.78
2018-12-29T11:57:23.688Z,102189.77
2018-12-29T11:59:52.114Z,102195.20
2018-12-29T12:02:24.431Z,102188.63
2018-12-29T12:04:50.714Z,102182.84
2018-12-29T12:07:19.164Z,102179.41
2018-12-29T12:09:47.587Z,102180.62
2018-12-29T12:12:16.050Z,102175.23
2018-12-29T12:14:44.489Z,102170.86
2018-12-29T12:17:12.946Z,102172.27
2018-12-29T12:19:41.367Z,102170.86
2018-12-29T12:22:09.832Z,102176.43
2018-12-29T12:24:38.307Z,102172.30
2018-12-29T12:27:06.722Z,102175.87
2018-12-29T12:29:35.647Z,102174.17
2018-12-29T12:32:04.336Z,102179.27
2018-12-29T12:34:32.863Z,102182.63
2018-12-29T12:37:01.293Z,102169.84
2018-12-29T12:39:29.758Z,102175.28
2018-12-29T12:41:58.181Z,102166.95
2018-12-29T12:44:26.627Z,102161.69
2018-12-29T12:46:55.052Z,102164.86
2018-12-29T12:49:23.975Z,102162.66
2018-12-29T12:51:52.400Z,102156.37
2018-12-29T12:54:20.863Z,102159.89
2018-12-29T12:56:49.276Z,102157.30
2018-12-29T12:59:18.707Z,102156.24
2018-12-29T13:01:47.403Z,102152.67
2018-12-29T13:04:15.852Z,102155.85
2018-12-29T13:06:44.279Z,102143.75
2018-12-29T13:09:13.008Z,102132.88
2018-12-29T13:11:41.436Z,102126.09
2018-12-29T13:14:09.964Z,102126.30
2018-12-29T13:16:38.382Z,102129.02
2018-12-29T13:19:06.838Z,102119.45
2018-12-29T13:21:35.430Z,102120.31
2018-12-29T13:24:03.956Z,102116.40
2018-12-29T13:26:32.385Z,102104.68
2018-12-29T13:29:00.842Z,102098.02
2018-12-29T13:31:29.264Z,102080.86
2018-12-29T13:33:58.199Z,102085.11
2018-12-29T13:36:26.622Z,102086.59
2018-12-29T13:38:55.067Z,102081.97
2018-12-29T13:41:23.490Z,102082.94
2018-12-29T13:43:51.955Z,102081.23
2018-12-29T13:46:20.756Z,102067.44
2018-12-29T13:48:49.212Z,102067.23
2018-12-29T13:51:17.633Z,102066.72
2018-12-29T13:53:46.932Z,102054.66
2018-12-29T13:56:15.391Z,102049.06
2018-12-29T13:58:44.087Z,102045.28
2018-12-29T14:01:12.533Z,102040.36
2018-12-29T14:03:40.956Z,102036.29
2018-12-29T14:06:09.409Z,102037.47
2018-12-29T14:08:37.837Z,102038.83
2018-12-29T14:11:06.286Z,102028.26
2018-12-29T14:13:34.708Z,102033.48
2018-12-29T14:16:03.156Z,102029.41
2018-12-29T14:18:31.586Z,102028.34
2018-12-29T14:21:00.033Z,102023.42
2018-12-29T14:23:28.456Z,102013.58
2018-12-29T14:25:56.912Z,102013.23
2018-12-29T14:28:25.336Z,102010.30
2018-12-29T14:30:53.779Z,102000.45
2018-12-29T14:33:22.210Z,101994.31
2018-12-29T14:35:50.660Z,101998.55
2018-12-29T14:38:19.091Z,101988.67
2018-12-29T14:40:47.538Z,101977.97
2018-12-29T14:43:15.958Z,101968.47
2018-12-29T14:45:44.417Z,101972.37
2018-12-29T14:48:12.844Z,101961.17
2018-12-29T14:50:41.294Z,101959.47
2018-12-29T14:53:09.721Z,101953.19
2018-12-29T14:55:38.169Z,101944.33
2018-12-29T14:58:06.594Z,101943.31
2018-12-29T15:00:35.049Z,101934.83
2018-12-29T15:03:03.479Z,101935.50
2018-12-29T15:05:31.934Z,101924.64
2018-12-29T15:08:00.361Z,101931.05
2018-12-29T15:10:29.555Z,101925.63
2018-12-29T15:12:58.085Z,101930.75
2018-12-29T15:15:26.555Z,101930.75
2018-12-29T15:17:54.969Z,101923.45
2018-12-29T15:20:23.707Z,101922.78
2018-12-29T15:22:52.347Z,101923.97
2018-12-29T15:25:20.822Z,101914.97
2018-12-29T15:27:49.652Z,101913.61
2018-12-29T15:30:18.078Z,101889.34
2018-12-29T15:32:46.524Z,101878.11
2018-12-29T15:35:14.945Z,101882.39
2018-12-29T15:37:43.403Z,101881.37
2018-12-29T15:40:11.828Z,101867.97
2018-12-29T15:42:44.978Z,101860.84
2018-12-29T15:45:10.424Z,101852.70
2018-12-29T15:47:38.878Z,101838.11
2018-12-29T15:50:07.378Z,101838.61
2018-12-29T15:52:35.835Z,101830.47
2018-12-29T15:55:05.199Z,101825.69
2018-12-29T15:57:33.661Z,101819.41
2018-12-29T16:00:02.092Z,101823.98
2018-12-29T16:02:30.539Z,101821.78
2018-12-29T16:04:59.343Z,101827.72
2018-12-29T16:07:27.799Z,101818.69
2018-12-29T16:09:56.419Z,101818.05
2018-12-29T16:12:24.888Z,101819.57
2018-12-29T16:14:53.323Z,101813.47
2018-12-29T16:17:21.772Z,101806.48
2018-12-29T16:19:50.571Z,101803.08
2018-12-29T16:22:19.038Z,101797.62
2018-12-29T16:24:48.709Z,101788.56
2018-12-29T16:27:17.439Z,101790.38
2018-12-29T16:29:45.860Z,101786.78
2018-12-29T16:32:14.288Z,101778.95
2018-12-29T16:34:42.745Z,101776.23
2018-12-29T16:37:11.164Z,101774.33
2018-12-29T16:39:39.895Z,101763.44
2018-12-29T16:42:08.313Z,101766.36
2018-12-29T16:44:36.837Z,101751.57
2018-12-29T16:47:05.265Z,101743.26
2018-12-29T16:49:34.273Z,101737.12
2018-12-29T16:52:02.780Z,101733.69
2018-12-29T16:54:31.239Z,101724.70
2018-12-29T16:56:59.747Z,101716.73
2018-12-29T16:59:28.667Z,101704.19
2018-12-29T17:01:57.664Z,101695.20
2018-12-29T17:04:26.108Z,101682.62
2018-12-29T17:06:54.530Z,101688.55
2018-12-29T17:09:23.258Z,101674.66
2018-12-29T17:11:52.583Z,101666.66
2018-12-29T17:14:21.319Z,101663.94
2018-12-29T17:16:49.746Z,101659.02
2018-12-29T17:19:18.194Z,101644.61
2018-12-29T17:21:46.614Z,101643.97
2018-12-29T17:24:15.067Z,101641.59
2018-12-29T17:26:43.492Z,101638.88
2018-12-29T17:29:11.948Z,101627.69
2018-12-29T17:31:40.369Z,101631.59
2018-12-29T17:34:09.199Z,101619.38
2018-12-29T17:36:41.861Z,101612.29
2018-12-29T17:39:07.837Z,101612.29
2018-12-29T17:41:36.301Z,101612.80
2018-12-29T17:44:04.715Z,101606.86
2018-12-29T17:46:33.543Z,101595.50
2018-12-29T17:49:02.211Z,101595.50
2018-12-29T17:51:30.677Z,101592.31
2018-12-29T17:53:59.104Z,101593.52
2018-12-29T17:56:27.943Z,101574.16
2018-12-29T17:58:56.368Z,101571.31
2018-12-29T18:01:24.813Z,101581.48
2018-12-29T18:03:53.241Z,101574.22
2018-12-29T18:06:21.690Z,101569.64
2018-12-29T18:08:50.113Z,101564.22
2018-12-29T18:11:18.572Z,101557.94
2018-12-29T18:13:46.993Z,101556.75
2018-12-29T18:16:15.720Z,101551.83
2018-12-29T18:18:44.139Z,101545.05
2018-12-29T18:21:12.595Z,101548.98
2018-12-29T18:23:41.025Z,101537.25
2018-12-29T18:26:09.478Z,101540.33
2018-12-29T18:28:37.915Z,101535.23
2018-12-29T18:31:06.432Z,101523.88
2018-12-29T18:33:37.377Z,101517.28
2018-12-29T18:36:05.028Z,101520.51
2018-12-29T18:38:33.463Z,101512.37
2018-12-29T18:41:01.913Z,101509.14
2018-12-29T18:43:30.355Z,101504.89
2018-12-29T18:45:58.790Z,101502.05
2018-12-29T18:48:27.224Z,101507.15
2018-12-29T18:50:56.146Z,101499.66
2018-12-29T18:53:24.568Z,101490.81
2018-12-29T18:55:53.059Z,101487.45
2018-12-29T18:58:21.485Z,101490.50
2018-12-29T19:00:49.910Z,101485.45
2018-12-29T19:03:18.637Z,101486.45
2018-12-29T19:05:47.062Z,101487.80
2018-12-29T19:08:15.514Z,101477.97
2018-12-29T19:10:43.937Z,101472.22
2018-12-29T19:13:12.725Z,101471.71
2018-12-29T19:15:41.365Z,101465.45
2018-12-29T19:18:09.820Z,101467.83
2018-12-29T19:20:38.427Z,101463.39
2018-12-29T19:23:07.271Z,101461.55
2018-12-29T19:25:35.699Z,101460.02
2018-12-29T19:28:04.332Z,101457.81
2018-12-29T19:30:33.233Z,101453.94
2018-12-29T19:33:01.956Z,101450.20
2018-12-29T19:35:30.386Z,101441.88
2018-12-29T19:37:58.843Z,101434.44
2018-12-29T19:40:27.266Z,101432.91
2018-12-29T19:42:56.093Z,101426.48
2018-12-29T19:45:24.513Z,101419.19
2018-12-29T19:47:53.348Z,101413.39
2018-12-29T19:50:22.149Z,101398.97
2018-12-29T19:52:50.601Z,101395.92
2018-12-29T19:55:19.023Z,101389.32
2018-12-29T19:57:47.480Z,101383.56
2018-12-29T20:00:15.978Z,101383.39
2018-12-29T20:02:44.714Z,101377.11
2018-12-29T20:05:13.611Z,101369.13
2018-12-29T20:07:42.072Z,101364.20
2018-12-29T20:10:10.572Z,101357.41
2018-12-29T20:12:38.999Z,101356.24
2018-12-29T20:15:07.451Z,101350.62
2018-12-29T20:17:36.254Z,101340.28
2018-12-29T20:20:05.844Z,101336.58
2018-12-29T20:22:34.270Z,101326.56
2018-12-29T20:25:02.716Z,101336.06
2018-12-29T20:27:31.140Z,101339.95
2018-12-29T20:29:59.869Z,101337.94
2018-12-29T20:32:28.289Z,101335.73
2018-12-29T20:34:56.735Z,101335.55
2018-12-29T20:37:25.158Z,101327.92
2018-12-29T20:39:53.601Z,101330.12
2018-12-29T20:42:22.022Z,101323.15
2018-12-29T20:44:50.470Z,101319.77
2018-12-29T20:47:18.912Z,101313.49
2018-12-29T20:49:47.361Z,101315.19
2018-12-29T20:52:15.778Z,101313.83
2018-12-29T20:54:44.229Z,101308.39
2018-12-29T20:57:13.092Z,101308.39
2018-12-29T20:59:41.535Z,101307.40
2018-12-29T21:02:09.956Z,101310.78
2018-12-29T21:04:38.397Z,101305.53
2018-12-29T21:07:06.818Z,101303.66
2018-12-29T21:09:35.268Z,101296.86
2018-12-29T21:12:03.684Z,101309.08
2018-12-29T21:14:32.131Z,101305.67
2018-12-29T21:17:00.550Z,101302.95
2018-12-29T21:19:28.998Z,101297.38
2018-12-29T21:21:57.415Z,101298.06
2018-12-29T21:24:25.839Z,101294.98
2018-12-29T21:26:54.288Z,101294.64
2018-12-29T21:29:22.715Z,101295.16
2018-12-29T21:31:51.168Z,101288.19
2018-12-29T21:34:19.604Z,101288.03
2018-12-29T21:36:48.101Z,101285.49
2018-12-29T21:39:16.899Z,101283.26
2018-12-29T21:41:45.386Z,101281.56
2018-12-29T21:44:13.845Z,101282.25
2018-12-29T21:46:42.282Z,101281.41
2018-12-29T21:49:10.706Z,101275.13
2018-12-29T21:51:39.153Z,101287.50
2018-12-29T21:54:07.585Z,101273.08
2018-12-29T21:56:36.024Z,101277.47
2018-12-29T21:59:04.508Z,101279.00
2018-12-29T22:01:32.950Z,101257.95
2018-12-29T22:04:01.368Z,101271.68
2018-12-29T22:06:30.184Z,101286.29
2018-12-29T22:08:58.603Z,101290.73
2018-12-29T22:11:27.046Z,101289.37
2018-12-29T22:13:55.462Z,101285.96
2018-12-29T22:16:23.906Z,101287.83
2018-12-29T22:18:52.323Z,101286.98
2018-12-29T22:21:21.033Z,101288.50
2018-12-29T22:23:49.442Z,101293.42
2018-12-29T22:26:17.883Z,101295.81
2018-12-29T22:28:46.307Z,101294.13
2018-12-29T22:31:14.715Z,101295.81
2018-12-29T22:33:43.162Z,101295.48
2018-12-29T22:36:11.579Z,101302.94
2018-12-29T22:38:40.025Z,101299.38
2018-12-29T22:41:08.440Z,101294.64
2018-12-29T22:43:36.879Z,101302.28
2018-12-29T22:46:05.299Z,101308.90
2018-12-29T22:48:34.119Z,101305.67
2018-12-29T22:51:02.531Z,101311.44
2018-12-29T22:53:30.977Z,101304.31
2018-12-29T22:55:59.394Z,101308.39
2018-12-29T22:58:27.836Z,101310.78
2018-12-29T23:00:56.490Z,101308.73
2018-12-29T23:03:24.938Z,101309.76
2018-12-29T23:05:53.422Z,101310.78
2018-12-29T23:08:21.864Z,101307.55
2018-12-29T23:10:50.283Z,101301.80
2018-12-29T23:13:18.727Z,101304.84
2018-12-29T23:15:47.143Z,101295.16
2018-12-29T23:18:15.585Z,101295.16
2018-12-29T23:20:48.989Z,101295.83
2018-12-29T23:23:14.446Z,101292.27
2018-12-29T23:25:42.867Z,101300.92
2018-12-29T23:28:11.311Z,101296.01
2018-12-29T23:30:39.725Z,101295.16
2018-12-29T23:33:08.165Z,101296.52
2018-12-29T23:35:36.605Z,101298.21
2018-12-29T23:38:05.502Z,101307.39
2018-12-29T23:40:33.914Z,101313.66
2018-12-29T23:43:02.360Z,101310.44
2018-12-29T23:45:31.147Z,101315.72
2018-12-29T23:47:59.595Z,101314.69
2018-12-29T23:50:28.074Z,101324.70
2018-12-29T23:52:56.894Z,101315.20
2018-12-29T23:55:25.688Z,101321.48
2018-12-29T23:57:54.111Z,101315.20
